Terminal Aerodrome Forecast
Issued by NWS

Home | Current Version | Previous Version | Text Only | Print | Product List | Glossary On
Versions: 1 2 3 4 5 6 7 8 9 10 11 12 13 14 15 16 17
000
FTUS42 KTBW 040529 AAA
TAFLAL
TAF AMD
KLAL 040529Z 0405/0506 20005KT P6SM FEW020 SCT250
     FM041700 26007KT P6SM VCTS SCT035CB BKN150
     FM050000 28004KT P6SM FEW040 BKN250
      AMD NOT SKED TIL 041200=

USA.gov is the U.S. government's official web portal to all federal, state and local government web resources and services.